Time;durP1;ratioP1;P1;durP2;ratioP2;P2;SDS_P1;SDS_P2;PMS_P1;PMS_P2;Temp;Humidity;BMP_temperature;BMP_pressure;BME280_temperature;BME280_humidity;BME280_pressure;Samples;Min_cycle;Max_cycle;Signal;HPM_P1;HPM_P2
2021/05/11 00:00:30;;;;;;;0.30;0.30;;;14.30;70.70;;;;;;5021037;28;20068;-75
2021/05/11 00:02:56;;;;;;;0.40;0.40;;;14.30;70.60;;;;;;5024135;28;20026;-77
2021/05/11 00:05:22;;;;;;;1.13;0.40;;;14.30;70.70;;;;;;5021028;28;20035;-77
2021/05/11 00:07:47;;;;;;;0.50;0.50;;;14.20;71.20;;;;;;5013164;28;20105;-75
2021/05/11 00:10:13;;;;;;;0.68;0.47;;;14.30;71.00;;;;;;5019671;28;20251;-76
2021/05/11 00:12:39;;;;;;;0.40;0.40;;;14.30;71.10;;;;;;5017504;28;20021;-75
2021/05/11 00:15:05;;;;;;;0.45;0.45;;;14.20;70.90;;;;;;5016908;28;20105;-75
2021/05/11 00:17:32;;;;;;;1.25;0.50;;;14.30;70.50;;;;;;5020433;28;20459;-75
2021/05/11 00:19:59;;;;;;;4.50;0.80;;;14.40;70.80;;;;;;5016263;28;20152;-76
2021/05/11 00:22:25;;;;;;;0.60;0.60;;;14.30;70.90;;;;;;5021466;28;20263;-75
2021/05/11 00:24:51;;;;;;;0.50;0.50;;;14.30;71.10;;;;;;5019906;28;20053;-74
2021/05/11 00:27:16;;;;;;;1.75;0.50;;;14.30;70.80;;;;;;5019463;28;20041;-76
2021/05/11 00:29:42;;;;;;;0.40;0.40;;;14.20;70.80;;;;;;5016747;28;20048;-75
2021/05/11 00:32:08;;;;;;;0.50;0.50;;;14.20;70.90;;;;;;5015641;28;20045;-74
2021/05/11 00:34:33;;;;;;;0.60;0.60;;;14.20;70.70;;;;;;5015377;28;20457;-77
2021/05/11 00:36:59;;;;;;;0.60;0.60;;;14.20;70.80;;;;;;5018317;28;20033;-76
2021/05/11 00:39:25;;;;;;;0.73;0.70;;;14.20;70.60;;;;;;5022976;28;20094;-76
2021/05/11 00:41:50;;;;;;;0.38;0.38;;;14.30;70.60;;;;;;5016727;28;20136;-76
2021/05/11 00:44:21;;;;;;;0.52;0.50;;;14.20;71.70;;;;;;5018830;28;20033;-74
2021/05/11 00:47:00;;;;;;;0.50;0.50;;;14.20;70.80;;;;;;5018885;28;20050;-75
2021/05/11 00:49:26;;;;;;;0.95;0.55;;;14.30;70.60;;;;;;5018556;28;20028;-75
2021/05/11 00:51:52;;;;;;;1.13;0.50;;;14.30;70.50;;;;;;5021298;28;20026;-76
2021/05/11 00:54:19;;;;;;;0.30;0.30;;;14.30;70.50;;;;;;5020907;28;20025;-75
2021/05/11 00:56:46;;;;;;;0.70;0.70;;;14.30;70.80;;;;;;5016859;28;20507;-75
2021/05/11 00:59:30;;;;;;;0.30;0.30;;;14.20;71.00;;;;;;5016864;28;20048;-76
2021/05/11 01:01:58;;;;;;;0.50;0.50;;;14.20;71.30;;;;;;5015127;28;20518;-76
2021/05/11 01:04:24;;;;;;;0.65;0.50;;;14.00;71.50;;;;;;5021406;28;20072;-75
2021/05/11 01:06:51;;;;;;;0.45;0.43;;;14.00;71.20;;;;;;5017252;28;20034;-74
2021/05/11 01:09:17;;;;;;;0.63;0.60;;;14.00;71.20;;;;;;5017766;28;20047;-75
2021/05/11 01:11:43;;;;;;;0.60;0.60;;;14.00;71.50;;;;;;5020724;28;20487;-75
2021/05/11 01:14:09;;;;;;;0.60;0.60;;;13.90;72.00;;;;;;5016896;28;20091;-75
2021/05/11 01:16:35;;;;;;;1.00;0.45;;;13.90;71.70;;;;;;5015059;28;20095;-76
2021/05/11 01:26:41;;;;;;;;;;;13.90;71.50;;;;;;5022509;28;20026;-76
2021/05/11 01:48:05;;;;;;;0.98;0.52;;;13.70;72.80;;;;;;5018120;28;20072;-75
2021/05/11 01:50:48;;;;;;;0.32;0.32;;;13.70;72.50;;;;;;5021993;28;20492;-75
2021/05/11 02:22:39;;;;;;;0.57;0.57;;;13.20;73.80;;;;;;5018945;28;20044;-74
2021/05/11 02:25:06;;;;;;;0.45;0.45;;;13.20;74.60;;;;;;5021295;28;20063;-74
2021/05/11 02:27:32;;;;;;;1.42;0.60;;;13.20;74.60;;;;;;5016613;28;20056;-75
2021/05/11 02:29:58;;;;;;;0.45;0.45;;;13.20;75.20;;;;;;5035526;28;20056;-76
2021/05/11 02:32:24;;;;;;;3.30;0.70;;;13.20;74.70;;;;;;5013185;28;20030;-75
2021/05/11 02:34:49;;;;;;;0.60;0.60;;;13.20;74.70;;;;;;5020758;28;20057;-76
2021/05/11 02:37:15;;;;;;;0.40;0.40;;;13.20;74.70;;;;;;5014648;28;20048;-75
2021/05/11 02:39:41;;;;;;;1.20;0.47;;;13.10;75.10;;;;;;5021120;28;20066;-74
2021/05/11 02:42:07;;;;;;;0.98;0.73;;;13.00;74.90;;;;;;5022430;28;20025;-75
2021/05/11 02:44:43;;;;;;;1.67;0.60;;;12.90;75.90;;;;;;5019158;28;20032;-74
2021/05/11 02:47:08;;;;;;;0.77;0.68;;;12.90;75.30;;;;;;5012074;28;20021;-76
2021/05/11 02:49:38;;;;;;;0.70;0.70;;;13.00;75.50;;;;;;5004742;28;20021;-75
2021/05/11 02:52:04;;;;;;;0.60;0.60;;;12.80;76.00;;;;;;5012189;28;20079;-76
2021/05/11 02:54:29;;;;;;;0.80;0.80;;;12.80;76.10;;;;;;5014272;28;20022;-74
2021/05/11 02:56:55;;;;;;;0.68;0.68;;;12.90;76.30;;;;;;5016253;28;20037;-75
2021/05/11 02:59:20;;;;;;;0.60;0.60;;;12.90;76.10;;;;;;5014284;28;20603;-75
2021/05/11 03:01:46;;;;;;;1.00;0.85;;;12.80;76.20;;;;;;5007502;28;20041;-74
2021/05/11 03:04:12;;;;;;;0.60;0.60;;;12.90;76.00;;;;;;5023576;28;20025;-74
2021/05/11 03:06:37;;;;;;;0.70;0.70;;;12.80;76.40;;;;;;5013146;28;20025;-74
2021/05/11 03:09:03;;;;;;;1.50;0.70;;;12.80;76.20;;;;;;5014782;28;20542;-75
2021/05/11 03:11:29;;;;;;;0.65;0.65;;;12.70;75.90;;;;;;5013973;28;20042;-74
2021/05/11 03:13:54;;;;;;;0.90;0.90;;;12.70;76.10;;;;;;5005084;28;20099;-74
2021/05/11 03:16:22;;;;;;;1.25;0.88;;;12.70;76.90;;;;;;5009062;28;20499;-75
2021/05/11 03:18:47;;;;;;;0.90;0.90;;;12.60;77.20;;;;;;5006162;28;20049;-75
2021/05/11 03:21:13;;;;;;;1.25;0.90;;;12.70;77.00;;;;;;5007587;28;20996;-75
2021/05/11 03:23:39;;;;;;;1.02;1.02;;;12.60;77.50;;;;;;5020573;28;20510;-75
2021/05/11 03:26:04;;;;;;;1.73;0.70;;;12.60;77.10;;;;;;5013912;28;20038;-76
2021/05/11 03:28:30;;;;;;;0.63;0.63;;;12.50;76.20;;;;;;5011747;28;20499;-75
2021/05/11 03:30:56;;;;;;;1.73;0.70;;;12.50;76.30;;;;;;5007635;28;20506;-77
2021/05/11 03:33:21;;;;;;;0.80;0.80;;;12.50;77.10;;;;;;5009598;28;20160;-75
2021/05/11 03:35:47;;;;;;;0.80;0.80;;;12.50;77.30;;;;;;5008161;28;20060;-75
2021/05/11 03:38:14;;;;;;;1.52;1.10;;;12.60;77.50;;;;;;5013025;28;20041;-74
2021/05/11 03:40:39;;;;;;;1.00;0.80;;;12.60;77.70;;;;;;5014252;28;20547;-75
2021/05/11 03:43:10;;;;;;;0.60;0.60;;;12.60;77.90;;;;;;5006194;28;20047;-74
2021/05/11 03:45:40;;;;;;;1.55;0.90;;;12.60;77.50;;;;;;5010414;28;20029;-74
2021/05/11 03:48:06;;;;;;;1.27;0.80;;;12.60;77.50;;;;;;5007414;28;20037;-75
2021/05/11 03:50:32;;;;;;;3.30;0.85;;;12.60;77.50;;;;;;5011568;28;20036;-76
2021/05/11 03:52:58;;;;;;;1.30;0.70;;;12.60;78.00;;;;;;5009750;28;20040;-75
2021/05/11 03:55:23;;;;;;;0.57;0.57;;;12.60;77.80;;;;;;5012544;28;20055;-75
2021/05/11 03:57:49;;;;;;;2.15;0.80;;;12.60;77.60;;;;;;5005430;28;20021;-75
2021/05/11 04:00:15;;;;;;;0.65;0.63;;;12.60;77.50;;;;;;5015299;28;20555;-76
2021/05/11 04:02:41;;;;;;;0.73;0.73;;;12.70;77.50;;;;;;5017599;28;20036;-75
2021/05/11 04:05:09;;;;;;;1.48;0.80;;;12.70;77.20;;;;;;5017723;28;20033;-75
2021/05/11 04:07:35;;;;;;;;;;;12.70;77.30;;;;;;5009216;28;20083;-76
2021/05/11 04:10:05;;;;;;;0.80;0.80;;;12.60;77.60;;;;;;5009392;28;19913;-75
2021/05/11 04:18:10;;;;;;;0.65;0.63;;;12.60;78.30;;;;;;4982796;28;20432;-74
2021/05/11 04:20:36;;;;;;;2.00;0.57;;;12.60;77.40;;;;;;5007598;28;20037;-77
2021/05/11 04:23:01;;;;;;;3.35;0.88;;;12.50;77.40;;;;;;5004566;28;20457;-77
2021/05/11 04:25:27;;;;;;;0.68;0.68;;;12.60;77.50;;;;;;5009035;28;20037;-75
2021/05/11 04:27:53;;;;;;;1.00;1.00;;;12.50;77.40;;;;;;5013591;28;20021;-75
2021/05/11 04:30:20;;;;;;;0.80;0.80;;;12.50;77.60;;;;;;5003432;28;20022;-75
2021/05/11 04:32:45;;;;;;;1.20;0.90;;;12.50;77.50;;;;;;5012269;28;20032;-75
2021/05/11 04:35:12;;;;;;;4.88;1.10;;;12.50;77.40;;;;;;5002243;28;20037;-75
2021/05/11 04:37:37;;;;;;;3.38;1.08;;;12.50;77.50;;;;;;5010759;28;20554;-76
2021/05/11 04:40:03;;;;;;;1.50;0.88;;;12.40;77.80;;;;;;5004450;28;20038;-74
2021/05/11 04:42:29;;;;;;;0.90;0.80;;;12.40;77.50;;;;;;5004919;28;20041;-76
2021/05/11 04:44:57;;;;;;;2.05;1.08;;;12.30;77.60;;;;;;5014745;28;20561;-76
2021/05/11 04:47:30;;;;;;;3.08;1.00;;;12.30;77.10;;;;;;5004726;28;20026;-75
2021/05/11 04:49:58;;;;;;;1.10;1.00;;;12.30;77.20;;;;;;5004660;28;20029;-75
2021/05/11 04:52:23;;;;;;;2.58;1.02;;;12.30;77.60;;;;;;5005508;28;20369;-75
2021/05/11 04:54:49;;;;;;;1.35;1.10;;;12.20;77.70;;;;;;5010237;28;20060;-75
2021/05/11 04:57:15;;;;;;;2.00;0.80;;;12.20;78.80;;;;;;5006013;28;20034;-75
2021/05/11 04:59:40;;;;;;;0.88;0.82;;;12.30;79.00;;;;;;5012636;28;20033;-75
2021/05/11 05:02:06;;;;;;;1.48;0.98;;;12.30;78.80;;;;;;5020128;28;20052;-74
2021/05/11 05:04:34;;;;;;;1.02;0.95;;;12.30;78.40;;;;;;5008766;28;20044;-74
2021/05/11 05:07:00;;;;;;;0.80;0.80;;;12.40;78.30;;;;;;5004803;28;20488;-74
2021/05/11 05:09:26;;;;;;;1.55;1.00;;;12.50;78.40;;;;;;5014564;28;20048;-75
2021/05/11 05:11:51;;;;;;;1.13;0.98;;;12.70;77.80;;;;;;5008877;28;20109;-75
2021/05/11 05:14:17;;;;;;;3.95;1.25;;;12.70;77.60;;;;;;5010391;28;20033;-75
2021/05/11 05:16:42;;;;;;;1.33;0.85;;;12.80;77.60;;;;;;5010109;28;20048;-74
2021/05/11 05:19:08;;;;;;;1.95;0.75;;;12.90;77.60;;;;;;5004729;28;20414;-77
2021/05/11 05:21:35;;;;;;;0.90;0.80;;;13.00;77.50;;;;;;5008497;28;20051;-75
2021/05/11 05:24:06;;;;;;;1.50;0.70;;;13.10;76.90;;;;;;5009387;28;20030;-76
2021/05/11 05:26:32;;;;;;;1.05;0.95;;;13.20;76.80;;;;;;5012021;28;20018;-76
2021/05/11 05:28:58;;;;;;;0.98;0.90;;;13.30;76.20;;;;;;5019653;28;20033;-75
2021/05/11 05:31:24;;;;;;;0.80;0.80;;;13.40;76.50;;;;;;5007697;28;20042;-74
2021/05/11 05:33:50;;;;;;;0.75;0.75;;;13.40;76.80;;;;;;5006076;28;20420;-73
2021/05/11 05:36:16;;;;;;;0.70;0.70;;;13.50;76.90;;;;;;5009352;28;20030;-77
2021/05/11 05:38:42;;;;;;;1.60;1.15;;;13.60;76.00;;;;;;5014411;28;20662;-76
2021/05/11 05:41:22;;;;;;;0.98;0.90;;;13.70;76.00;;;;;;5017981;28;20049;-76
2021/05/11 05:43:48;;;;;;;3.20;0.90;;;13.80;75.80;;;;;;5021026;28;20032;-76
2021/05/11 05:46:14;;;;;;;1.00;1.00;;;13.90;76.80;;;;;;5017294;28;20120;-76
2021/05/11 05:48:40;;;;;;;0.75;0.75;;;14.00;75.50;;;;;;5022181;28;20104;-76
2021/05/11 05:51:06;;;;;;;1.10;1.00;;;14.10;75.60;;;;;;5020493;28;20047;-75
2021/05/11 05:53:40;;;;;;;1.10;0.90;;;14.20;74.60;;;;;;5025760;28;20053;-75
2021/05/11 05:56:08;;;;;;;0.90;0.88;;;14.30;74.40;;;;;;5026033;28;20029;-75
2021/05/11 05:58:34;;;;;;;1.30;1.00;;;14.30;74.30;;;;;;5022130;28;20545;-75
2021/05/11 06:01:04;;;;;;;1.08;0.95;;;14.40;74.20;;;;;;5013623;28;20033;-76
2021/05/11 06:03:50;;;;;;;1.58;0.93;;;14.50;74.10;;;;;;5010222;28;20028;-75
2021/05/11 06:06:16;;;;;;;1.15;1.00;;;14.50;73.30;;;;;;5012563;28;20029;-75
2021/05/11 06:08:43;;;;;;;0.88;0.88;;;14.50;73.80;;;;;;5012200;28;20546;-74
2021/05/11 06:18:54;;;;;;;2.38;1.00;;;14.60;72.70;;;;;;5013409;28;20116;-76
2021/05/11 06:21:20;;;;;;;1.10;1.00;;;14.70;72.90;;;;;;5009450;28;20034;-75
2021/05/11 06:23:45;;;;;;;1.42;1.10;;;14.70;73.50;;;;;;5008828;28;20353;-76
2021/05/11 06:26:13;;;;;;;1.77;1.13;;;14.80;72.80;;;;;;5006765;28;20030;-74
2021/05/11 06:28:40;;;;;;;1.13;1.02;;;14.90;73.30;;;;;;5012248;28;20037;-74
2021/05/11 06:31:07;;;;;;;1.00;1.00;;;15.00;72.30;;;;;;5012416;28;20040;-77
2021/05/11 06:33:33;;;;;;;1.05;0.95;;;15.10;71.40;;;;;;5015346;28;20184;-76
2021/05/11 06:35:59;;;;;;;1.33;1.08;;;15.10;71.60;;;;;;5020619;28;20472;-75
2021/05/11 06:38:24;;;;;;;0.85;0.85;;;15.20;71.20;;;;;;5008048;28;20052;-77
2021/05/11 06:40:50;;;;;;;2.38;1.10;;;15.30;70.60;;;;;;5018509;28;20028;-77
2021/05/11 06:43:23;;;;;;;1.20;1.10;;;15.30;71.10;;;;;;5012824;28;20396;-75
2021/05/11 06:48:37;;;;;;;1.02;1.00;;;15.30;71.30;;;;;;5018495;28;20120;-75
2021/05/11 06:53:44;;;;;;;1.23;1.13;;;15.30;72.30;;;;;;5008307;28;21254;-76
2021/05/11 06:56:12;;;;;;;1.33;1.10;;;15.20;72.20;;;;;;5019207;28;20502;-75
2021/05/11 06:58:38;;;;;;;1.98;1.23;;;15.30;72.20;;;;;;5012312;28;20626;-75
2021/05/11 07:01:04;;;;;;;1.13;1.10;;;15.30;71.50;;;;;;5017749;28;20042;-75
2021/05/11 07:03:30;;;;;;;1.55;1.30;;;15.30;72.30;;;;;;5005614;28;20022;-74
2021/05/11 07:05:58;;;;;;;1.20;1.10;;;15.30;71.20;;;;;;5017707;28;20112;-76
2021/05/11 07:08:30;;;;;;;1.17;1.08;;;15.30;73.30;;;;;;5004105;28;20029;-75
2021/05/11 07:10:59;;;;;;;1.00;1.00;;;15.30;72.20;;;;;;5011818;28;20038;-76
2021/05/11 07:13:25;;;;;;;1.20;1.10;;;15.30;71.60;;;;;;5011948;28;20040;-76
2021/05/11 07:15:50;;;;;;;1.38;1.20;;;15.40;73.70;;;;;;5010319;28;20033;-75
2021/05/11 07:18:19;;;;;;;1.50;1.40;;;15.50;72.10;;;;;;5031943;28;20033;-74
2021/05/11 07:20:45;;;;;;;;;;;15.50;71.50;;;;;;5008043;28;20041;-77
2021/05/11 07:23:16;;;;;;;1.08;1.08;;;15.50;72.70;;;;;;5013693;28;19935;-76
2021/05/11 07:26:07;;;;;;;1.85;1.20;;;15.50;72.30;;;;;;5008094;28;20563;-76
2021/05/11 07:30:56;;;;;;;1.58;1.48;;;15.40;72.80;;;;;;5010050;28;20038;-77
2021/05/11 07:33:24;;;;;;;3.03;1.50;;;15.40;72.20;;;;;;5014185;28;20511;-75
2021/05/11 07:35:50;;;;;;;2.30;1.77;;;15.30;71.40;;;;;;5007147;28;20033;-77
2021/05/11 07:38:16;;;;;;;3.83;1.40;;;15.30;73.80;;;;;;5006017;28;20614;-76
2021/05/11 07:40:42;;;;;;;2.13;1.73;;;15.30;73.90;;;;;;5013446;28;20076;-77
2021/05/11 07:43:08;;;;;;;2.15;1.77;;;15.30;74.50;;;;;;5014069;28;20082;-75
2021/05/11 07:45:50;;;;;;;2.63;1.70;;;15.30;75.00;;;;;;5006241;28;20029;-76
2021/05/11 08:04:41;;;;;;;3.70;1.92;;;15.30;74.70;;;;;;4989259;28;20033;-76
2021/05/11 08:15:34;;;;;;;3.20;2.47;;;15.20;74.50;;;;;;5021621;28;20047;-77
2021/05/11 08:28:28;;;;;;;3.70;3.08;;;15.20;74.10;;;;;;5021479;28;20091;-75
2021/05/11 08:30:54;;;;;;;4.43;3.00;;;15.10;74.90;;;;;;5017415;28;20033;-76
2021/05/11 08:33:20;;;;;;;3.10;2.63;;;15.00;75.40;;;;;;5020417;28;20040;-76
2021/05/11 08:35:48;;;;;;;3.40;3.10;;;15.00;74.80;;;;;;5021155;28;20132;-75
2021/05/11 08:38:13;;;;;;;3.50;2.83;;;15.00;75.30;;;;;;5019489;28;20030;-75
2021/05/11 08:40:39;;;;;;;4.13;2.83;;;15.00;76.50;;;;;;5020816;28;20029;-75
2021/05/11 08:43:37;;;;;;;4.50;3.42;;;15.00;77.30;;;;;;5019540;28;20493;-75
2021/05/11 08:46:05;;;;;;;4.25;3.35;;;15.00;77.00;;;;;;5018224;28;20076;-75
2021/05/11 08:48:31;;;;;;;3.92;2.95;;;15.00;76.30;;;;;;5020157;28;20040;-77
2021/05/11 08:51:11;;;;;;;4.82;3.22;;;15.10;78.60;;;;;;5018443;28;20124;-75
2021/05/11 09:32:35;;;;;;;2.85;2.55;;;16.00;73.10;;;;;;5015042;28;20039;-74
2021/05/11 10:36:57;;;;;;;4.47;2.95;;;16.80;70.40;;;;;;5023034;28;20032;-77
2021/05/11 10:39:39;;;;;;;3.90;3.28;;;16.70;70.60;;;;;;5021724;28;20037;-76
2021/05/11 10:48:31;;;;;;;4.43;3.22;;;16.70;70.90;;;;;;4998669;28;20380;-75
2021/05/11 10:51:18;;;;;;;3.38;3.08;;;16.70;70.30;;;;;;5021500;28;20102;-77
2021/05/11 10:53:48;;;;;;;5.30;3.65;;;16.80;70.30;;;;;;5020590;28;20116;-77
2021/05/11 10:56:37;;;;;;;5.40;3.40;;;16.90;68.70;;;;;;5024265;28;20108;-77
2021/05/11 10:59:23;;;;;;;3.75;3.20;;;16.90;67.50;;;;;;5021235;28;20026;-76
2021/05/11 11:02:23;;;;;;;5.72;3.83;;;16.90;68.50;;;;;;5023787;28;20032;-77
2021/05/11 11:04:49;;;;;;;4.55;3.45;;;16.80;72.10;;;;;;5021094;28;20464;-78
2021/05/11 11:07:15;;;;;;;4.80;3.58;;;16.90;70.80;;;;;;5022761;28;20387;-77
2021/05/11 11:09:53;;;;;;;5.72;3.70;;;16.80;69.50;;;;;;5025278;28;20480;-77
2021/05/11 11:12:21;;;;;;;4.90;4.03;;;16.90;70.40;;;;;;5023449;28;21144;-76
2021/05/11 11:14:47;;;;;;;5.70;4.35;;;16.90;70.10;;;;;;5024322;28;20044;-76
2021/05/11 11:17:14;;;;;;;5.10;3.70;;;16.90;69.30;;;;;;5021056;28;20053;-75
2021/05/11 11:19:41;;;;;;;4.70;3.65;;;16.90;69.30;;;;;;5018730;28;20034;-75
2021/05/11 11:24:58;;;;;;;6.53;4.10;;;17.00;71.80;;;;;;5016349;28;20359;-77
2021/05/11 11:27:28;;;;;;;5.90;4.63;;;17.00;72.30;;;;;;5009223;28;20670;-76
2021/05/11 11:30:11;;;;;;;6.72;3.83;;;16.90;71.70;;;;;;5019809;28;20030;-77
2021/05/11 11:32:37;;;;;;;5.93;4.25;;;16.90;70.70;;;;;;5020936;28;20042;-76
2021/05/11 11:35:05;;;;;;;7.25;4.43;;;16.80;71.60;;;;;;5017454;28;20464;-77
2021/05/11 11:37:31;;;;;;;6.32;4.35;;;16.80;72.80;;;;;;5021829;28;20034;-77
2021/05/11 11:40:03;;;;;;;7.93;4.82;;;16.90;73.50;;;;;;5019759;28;20399;-75
2021/05/11 11:42:38;;;;;;;5.82;4.72;;;16.80;72.80;;;;;;5022160;28;20095;-76
2021/05/11 11:45:11;;;;;;;5.93;4.20;;;16.80;72.10;;;;;;5021236;28;20025;-76
2021/05/11 11:47:42;;;;;;;4.75;3.60;;;16.80;70.70;;;;;;5022142;28;20515;-77
2021/05/11 11:50:10;;;;;;;6.90;4.13;;;16.80;69.90;;;;;;5022239;28;20060;-77
2021/05/11 12:00:21;;;;;;;5.57;3.80;;;16.70;70.00;;;;;;5023817;28;20049;-76
2021/05/11 12:02:52;;;;;;;4.45;3.78;;;16.70;70.10;;;;;;5017032;28;20117;-76
2021/05/11 12:05:18;;;;;;;6.57;3.72;;;16.80;69.40;;;;;;5020947;28;20025;-76
2021/05/11 12:07:59;;;;;;;6.25;4.32;;;16.80;70.80;;;;;;5021716;28;20032;-75
2021/05/11 12:10:26;;;;;;;7.75;4.20;;;16.80;70.70;;;;;;5023126;28;20491;-75
2021/05/11 12:12:52;;;;;;;5.80;4.60;;;16.80;70.00;;;;;;5017366;28;20021;-77
2021/05/11 12:15:22;;;;;;;7.70;4.80;;;16.80;71.60;;;;;;5021525;28;20021;-77
2021/05/11 12:20:40;;;;;;;9.25;5.40;;;16.90;70.00;;;;;;5017808;28;20029;-77
2021/05/11 12:23:09;;;;;;;6.32;4.47;;;17.00;70.10;;;;;;5022133;28;20041;-76
2021/05/11 12:25:36;;;;;;;5.68;4.13;;;17.00;70.20;;;;;;5021021;28;20129;-75
2021/05/11 12:28:02;;;;;;;5.90;4.53;;;17.00;70.70;;;;;;5020435;28;20049;-77
2021/05/11 12:30:41;;;;;;;5.85;4.30;;;17.10;70.20;;;;;;5013315;28;20038;-76
2021/05/11 12:33:14;;;;;;;6.75;4.13;;;17.10;69.40;;;;;;5016334;28;20033;-76
2021/05/11 12:35:41;;;;;;;6.25;4.30;;;17.10;70.30;;;;;;5018736;28;20085;-77
2021/05/11 12:38:21;;;;;;;5.03;4.07;;;17.10;69.40;;;;;;5021544;28;20029;-77
2021/05/11 12:41:02;;;;;;;6.95;4.25;;;17.00;69.90;;;;;;5020810;28;20017;-76
2021/05/11 12:43:44;;;;;;;6.85;4.50;;;17.10;69.80;;;;;;5020004;28;20770;-76
2021/05/11 12:46:15;;;;;;;5.35;4.10;;;17.00;70.80;;;;;;5019203;28;20639;-77
2021/05/11 12:49:02;;;;;;;6.20;4.57;;;16.90;70.80;;;;;;5019023;28;20032;-75
2021/05/11 12:51:41;;;;;;;6.40;4.93;;;17.00;70.70;;;;;;5020481;28;20033;-76
2021/05/11 13:02:34;;;;;;;8.30;4.80;;;16.90;70.80;;;;;;5018220;28;20438;-77
2021/05/11 13:27:51;;;;;;;6.95;5.10;;;16.70;70.30;;;;;;5020480;28;20706;-75
2021/05/11 13:33:12;;;;;;;;;;;16.60;69.60;;;;;;5017817;28;20033;-76
2021/05/11 13:35:03;;;;;;;6.00;4.10;;;16.60;70.40;;;;;;5003568;28;20339;-76
2021/05/11 13:37:29;;;;;;;5.72;4.50;;;16.60;70.20;;;;;;5017259;28;20044;-76
2021/05/11 13:39:58;;;;;;;8.02;4.55;;;16.50;70.60;;;;;;5022223;28;20026;-76
2021/05/11 13:42:25;;;;;;;6.88;4.32;;;16.60;71.00;;;;;;5020034;28;20014;-77
2021/05/11 13:44:53;;;;;;;8.57;5.05;;;16.60;71.30;;;;;;5022948;28;20032;-76
2021/05/11 13:47:19;;;;;;;5.65;4.25;;;16.60;70.30;;;;;;5019855;28;20013;-76
2021/05/11 13:49:44;;;;;;;6.43;4.40;;;16.60;70.60;;;;;;5019491;28;20512;-76
2021/05/11 13:52:10;;;;;;;7.05;4.93;;;16.60;70.40;;;;;;5017550;28;20132;-76
2021/05/11 13:54:35;;;;;;;9.25;5.03;;;16.70;71.60;;;;;;5020635;28;20482;-75
2021/05/11 14:05:01;;;;;;;6.05;4.90;;;16.50;72.90;;;;;;5022549;28;20018;-76
2021/05/11 14:07:26;;;;;;;6.93;4.68;;;16.40;73.70;;;;;;5022649;28;20033;-75
2021/05/11 14:09:52;;;;;;;8.35;5.10;;;16.50;75.40;;;;;;5021746;28;20099;-76
2021/05/11 14:12:17;;;;;;;7.05;5.00;;;16.50;75.10;;;;;;5025833;28;20067;-76
2021/05/11 14:14:43;;;;;;;7.57;4.78;;;16.40;75.10;;;;;;5022332;28;20036;-75
2021/05/11 14:17:09;;;;;;;7.88;4.68;;;16.40;74.80;;;;;;5022277;28;20383;-76
2021/05/11 14:19:35;;;;;;;7.05;5.07;;;16.30;76.00;;;;;;5020202;28;20025;-76
2021/05/11 14:22:01;;;;;;;7.60;5.10;;;16.30;77.80;;;;;;5024564;28;20545;-75
2021/05/11 14:24:27;;;;;;;9.30;5.25;;;16.30;78.40;;;;;;5022232;28;20029;-76
2021/05/11 14:26:53;;;;;;;7.47;4.97;;;16.20;78.40;;;;;;5025833;28;20021;-76
2021/05/11 14:29:19;;;;;;;9.57;6.05;;;16.20;79.80;;;;;;5021502;28;20033;-76
2021/05/11 14:31:44;;;;;;;10.35;5.95;;;16.20;78.50;;;;;;5023358;28;20056;-76
2021/05/11 14:34:10;;;;;;;10.00;6.13;;;16.10;79.50;;;;;;5022553;28;20447;-76
2021/05/11 14:36:36;;;;;;;8.20;5.50;;;16.10;79.90;;;;;;5021347;28;20412;-74
2021/05/11 14:39:04;;;;;;;9.77;6.50;;;16.10;80.60;;;;;;5023401;28;20041;-77
2021/05/11 14:41:30;;;;;;;10.00;5.88;;;16.00;81.00;;;;;;5023279;28;20026;-75
2021/05/11 14:43:56;;;;;;;10.60;6.55;;;16.00;80.10;;;;;;5038694;28;20036;-76
2021/05/11 14:46:23;;;;;;;11.52;6.57;;;16.00;80.50;;;;;;5019394;28;20033;-76
2021/05/11 14:48:50;;;;;;;11.20;6.72;;;16.00;80.90;;;;;;5023849;28;20447;-75
2021/05/11 14:51:16;;;;;;;12.90;6.78;;;16.00;83.00;;;;;;5025613;28;20412;-76
2021/05/11 14:53:42;;;;;;;13.98;6.78;;;16.00;80.90;;;;;;5021278;28;20040;-75
2021/05/11 14:56:08;;;;;;;12.32;7.22;;;15.90;79.70;;;;;;5024307;28;20036;-76
2021/05/11 14:58:35;;;;;;;9.40;6.28;;;15.90;81.00;;;;;;5016878;28;20116;-75
2021/05/11 15:01:01;;;;;;;11.77;6.90;;;16.00;82.40;;;;;;5017864;28;20033;-76
2021/05/11 15:03:27;;;;;;;11.80;7.88;;;15.90;81.10;;;;;;5017038;28;20604;-75
2021/05/11 15:05:52;;;;;;;15.63;7.57;;;15.70;80.40;;;;;;5018081;28;20113;-76
2021/05/11 15:08:18;;;;;;;14.00;7.75;;;15.70;80.30;;;;;;5023947;28;20113;-76
2021/05/11 15:10:43;;;;;;;13.27;7.35;;;15.60;81.60;;;;;;5017148;28;20033;-76
2021/05/11 15:13:10;;;;;;;15.20;8.20;;;15.60;81.60;;;;;;5020164;28;20049;-77
2021/05/11 15:15:38;;;;;;;13.48;7.28;;;15.60;81.90;;;;;;5020894;28;20022;-76
2021/05/11 15:18:05;;;;;;;10.93;6.72;;;15.60;80.80;;;;;;5021441;28;20029;-75
2021/05/11 15:20:32;;;;;;;14.02;7.57;;;15.50;80.00;;;;;;5023102;28;20038;-77
2021/05/11 15:22:58;;;;;;;14.15;7.75;;;15.50;81.60;;;;;;5016263;28;20244;-76
2021/05/11 15:25:26;;;;;;;14.52;7.57;;;15.50;80.40;;;;;;5021869;28;20243;-76
2021/05/11 15:27:54;;;;;;;11.15;7.40;;;15.40;81.00;;;;;;5019690;28;20044;-75
2021/05/11 15:30:24;;;;;;;15.05;7.85;;;15.50;80.90;;;;;;5022732;28;20024;-76
2021/05/11 15:32:58;;;;;;;13.52;7.82;;;15.50;80.80;;;;;;5018090;28;20044;-76
2021/05/11 15:35:35;;;;;;;14.13;8.18;;;15.50;82.20;;;;;;5020177;28;20112;-74
2021/05/11 15:38:03;;;;;;;12.13;7.15;;;15.50;80.40;;;;;;5021502;28;20047;-75
2021/05/11 15:40:35;;;;;;;10.25;6.28;;;15.40;80.30;;;;;;5019524;28;20038;-75
2021/05/11 15:43:02;;;;;;;13.10;7.85;;;15.40;80.40;;;;;;5021615;28;20013;-76
2021/05/11 15:45:27;;;;;;;9.85;6.30;;;15.40;79.70;;;;;;5018949;28;20037;-76
2021/05/11 15:47:54;;;;;;;10.20;6.38;;;15.40;79.90;;;;;;5021739;28;20299;-76
2021/05/11 15:50:21;;;;;;;13.15;7.40;;;15.30;79.30;;;;;;5020279;28;20108;-75
2021/05/11 15:52:46;;;;;;;14.10;7.80;;;15.20;80.20;;;;;;5021482;28;20022;-75
2021/05/11 15:55:13;;;;;;;11.68;6.28;;;15.20;79.90;;;;;;5019580;28;20061;-76
2021/05/11 15:57:38;;;;;;;11.05;6.93;;;15.10;79.70;;;;;;5020435;28;20392;-76
2021/05/11 16:00:05;;;;;;;11.38;6.68;;;15.10;80.00;;;;;;5018038;28;20025;-76
2021/05/11 16:02:30;;;;;;;10.52;7.22;;;15.10;81.00;;;;;;5017270;28;20132;-76
2021/05/11 16:04:56;;;;;;;11.98;6.97;;;15.00;81.30;;;;;;5013651;28;20644;-75
2021/05/11 16:07:22;;;;;;;9.95;6.45;;;15.00;81.00;;;;;;5021400;28;20044;-77
2021/05/11 16:09:47;;;;;;;10.90;6.18;;;15.10;80.70;;;;;;5023919;28;20029;-75
2021/05/11 16:12:13;;;;;;;10.48;6.43;;;15.10;80.50;;;;;;5020447;28;20445;-76
2021/05/11 16:14:38;;;;;;;10.65;6.13;;;15.10;80.90;;;;;;5015951;28;20036;-76
2021/05/11 16:17:04;;;;;;;9.48;5.80;;;15.10;81.20;;;;;;5012754;28;20041;-75
2021/05/11 16:19:30;;;;;;;9.43;6.10;;;15.10;79.60;;;;;;5013804;28;20125;-75
2021/05/11 16:21:55;;;;;;;10.07;6.00;;;15.10;80.70;;;;;;5014773;28;20026;-75
2021/05/11 16:24:21;;;;;;;11.27;6.15;;;15.00;80.40;;;;;;5014037;28;21650;-75
2021/05/11 16:26:47;;;;;;;8.85;6.00;;;15.00;80.10;;;;;;5015201;28;20029;-75
2021/05/11 16:29:13;;;;;;;8.73;5.82;;;15.00;80.90;;;;;;5013507;28;20064;-75
2021/05/11 16:31:38;;;;;;;9.23;6.13;;;15.00;81.10;;;;;;5015047;28;20041;-75
2021/05/11 16:34:07;;;;;;;10.88;5.43;;;15.10;81.20;;;;;;5017403;28;20148;-74
2021/05/11 16:36:33;;;;;;;9.10;6.10;;;15.10;80.60;;;;;;5017038;28;21416;-75
2021/05/11 16:38:59;;;;;;;8.15;5.30;;;15.10;80.60;;;;;;5018438;28;20040;-76
2021/05/11 16:41:24;;;;;;;8.25;5.32;;;15.10;80.60;;;;;;5019868;28;20116;-75
2021/05/11 16:43:52;;;;;;;8.32;5.60;;;14.90;81.10;;;;;;5018814;28;20021;-75
2021/05/11 16:46:18;;;;;;;7.80;5.43;;;15.00;82.10;;;;;;5022992;28;20032;-76
2021/05/11 16:48:43;;;;;;;10.60;5.35;;;15.00;81.50;;;;;;5018988;28;20041;-77
2021/05/11 16:51:09;;;;;;;6.95;4.93;;;14.90;81.70;;;;;;5023292;28;20033;-75
2021/05/11 16:53:34;;;;;;;7.25;5.20;;;14.90;82.00;;;;;;5024392;28;20129;-75
2021/05/11 16:56:00;;;;;;;8.57;5.10;;;14.90;81.40;;;;;;5023250;28;20047;-75
2021/05/11 16:58:26;;;;;;;8.52;5.30;;;15.00;82.10;;;;;;5022470;28;20030;-76
2021/05/11 17:00:51;;;;;;;7.22;5.10;;;14.90;81.80;;;;;;5020824;28;20116;-78
2021/05/11 17:03:19;;;;;;;9.50;6.40;;;15.00;81.90;;;;;;5023850;28;20100;-77
2021/05/11 17:05:45;;;;;;;9.45;6.22;;;15.00;82.40;;;;;;5022355;28;20068;-75
2021/05/11 17:08:11;;;;;;;10.45;5.95;;;15.00;82.70;;;;;;5013604;28;20138;-75
2021/05/11 17:10:38;;;;;;;10.57;5.43;;;14.90;82.50;;;;;;5020463;28;20400;-76
2021/05/11 17:13:04;;;;;;;9.32;6.32;;;14.90;82.40;;;;;;5017713;28;20029;-74
2021/05/11 17:15:31;;;;;;;9.38;6.32;;;14.90;82.30;;;;;;5014183;28;20104;-74
2021/05/11 17:17:57;;;;;;;8.90;6.18;;;14.90;82.80;;;;;;5016344;28;20057;-76
2021/05/11 17:20:27;;;;;;;10.57;6.13;;;14.90;82.80;;;;;;5015111;28;20024;-75
2021/05/11 17:22:53;;;;;;;12.23;7.63;;;14.90;82.80;;;;;;5020447;28;20117;-75